Salina, Kansas
Current Conditions -  °F | °C
As of 6:09 PM on Friday 19 Dec 2014 (Local Time) from KSLN Reporting Station
Haze Haze  
Wind Chill: 28°   Ceiling: 1700
Heat Index: 34°   Visibility: 5mi
Dew Point: 31°   Wind: 7mph
Humidity: 89%   Direction: 160°SSE
Pressure: 30.16"   Gusts: NA
Location:  38.84°N, 97.61°W
Report Text: KSLN 200009Z 16006KT 5SM BR BKN017 01/M01 A3016 RMK AO2 T00111006
Loading
Personal Weather Stations






























Interactive Weather Map New forecast layout! Learn more

10-Day Weather Forecast

Advertisements
Track Severe Weather on mobile